• Join FlightAware (Why Join?)
  • Login
  • US Flag 
08:56PM EDT


 

Airport Tracker/Info


-or-


 

Live Flight TrackerFlight Track Log ✈ SWA868 ✈ 01-May-2013 ✈ KTPA - KMHT

Flight Track Log - Related Links

Times and Time Zones

All times are in EDT time to prevent confusion due to time zone crossing. See the SWA868 flight status page for this flight to view local times or setup timezone preferences in your user account.

Time Position Orientation Groundspeed Altitude Reporting Facility
EDT Latitude Longitude Course Direction KTS MPH feet Rate Location/Type
09:20PM 27.9667 -82.5500 204° Southwest 165 190 800  Level Tampa TRACON
09:21PM 27.9333 -82.5667 204° Southwest 195 224 2,000 2,100 Climbing Tampa TRACON
09:22PM 27.9333 -82.6500 270° West 237 273 5,100 2,520 Climbing Tampa TRACON
09:24PM 28.0392 -82.6481 North 276 318 9,100 2,460 Climbing Jacksonville Center
09:25PM 28.1267 -82.6431 North 293 337 11,600 1,440 Climbing Jacksonville Center
09:26PM 28.2247 -82.6311 North 321 369 12,000 600 Climbing Jacksonville Center
09:27PM 28.3228 -82.6214 North 339 390 12,900 1,920 Climbing Jacksonville Center
09:28PM 28.4231 -82.6117 North 352 405 15,900 2,880 Climbing Jacksonville Center
09:29PM 28.5272 -82.6019 North 362 417 18,700 2,580 Climbing Jacksonville Center
09:30PM 28.6358 -82.5944 North 374 430 21,100 2,100 Climbing Jacksonville Center
09:31PM 28.7486 -82.5989 358° North 386 444 22,900 1,800 Climbing Jacksonville Center
09:32PM 28.8656 -82.6175 352° North 399 459 24,800 1,800 Climbing Jacksonville Center
09:33PM 28.9867 -82.6314 354° North 423 487 26,500 1,680 Climbing Jacksonville Center
09:34PM 29.1119 -82.6503 352° North 437 503 28,200 1,500 Climbing Jacksonville Center
09:35PM 29.2392 -82.6689 353° North 450 518 29,600 1,440 Climbing Jacksonville Center
09:36PM 29.3708 -82.6875 353° North 464 534 31,100 1,620 Climbing Jacksonville Center
09:37PM 29.5189 -82.6944 358° North 478 550 32,900 1,620 Climbing Jacksonville Center
09:38PM 29.6506 -82.6919 North 478 550 34,400 1,620 Climbing Jacksonville Center
09:39PM 29.7842 -82.6939 359° North 472 543 36,200 1,260 Climbing Jacksonville Center
09:40PM 29.9136 -82.6936 360° North 472 543 37,000 960 Climbing Jacksonville Center
09:41PM 30.0428 -82.6647 11° North 459 528 38,200 960 Climbing Jacksonville Center
09:42PM 30.1514 -82.6283 16° North 459 528 39,000 360 Climbing Jacksonville Center
09:43PM 30.2725 -82.5775 20° North 454 522 39,000  Level Jacksonville Center
09:44PM 30.3933 -82.5289 19° North 459 528 39,000  Level Jacksonville Center
09:45PM 30.5142 -82.4731 22° Northeast 459 528 39,000  Level Jacksonville Center
09:46PM 30.6372 -82.4119 23° Northeast 470 541 39,000  Level Jacksonville Center
09:47PM 30.7561 -82.3511 24° Northeast 470 541 39,000  Level Jacksonville Center
09:48PM 30.8747 -82.2922 23° Northeast 470 541 39,000  Level Jacksonville Center
09:49PM 30.9956 -82.2308 24° Northeast 465 535 39,000  Level Jacksonville Center
09:50PM 31.1142 -82.1719 23° Northeast 460 529 39,000  Level Jacksonville Center
09:51PM 31.2350 -82.1078 24° Northeast 465 535 39,000  Level Jacksonville Center
09:52PM 31.3600 -82.0433 24° Northeast 465 535 39,000  Level Jacksonville Center
09:53PM 31.4783 -81.9814 24° Northeast 469 540 39,000  Level Jacksonville Center
09:54PM 31.6117 -81.9119 24° Northeast 474 545 39,000  Level Jacksonville Center
09:55PM 31.7364 -81.8469 24° Northeast 474 545 39,000  Level Jacksonville Center
09:56PM 31.8464 -81.7919 23° Northeast 479 551 39,000  Level Jacksonville Center
09:57PM 31.9817 -81.7194 24° Northeast 479 551 39,000  Level Jacksonville Center
09:58PM 32.0917 -81.6639 23° Northeast 479 551 39,000  Level Jacksonville Center
09:59PM 32.2289 -81.5933 24° Northeast 479 551 39,000  Level Jacksonville Center
10:00PM 32.3511 -81.5278 24° Northeast 479 551 39,000  Level Jacksonville Center
10:01PM 32.4633 -81.4694 24° Northeast 479 551 39,000  Level Jacksonville Center
10:02PM 32.5983 -81.3983 24° Northeast 479 551 39,000  Level Jacksonville Center
10:03PM 32.7183 -81.3294 26° Northeast 479 551 39,000  Level Jacksonville Center
10:04PM 32.8450 -81.2656 23° Northeast 479 551 39,000  Level Jacksonville Center
10:05PM 32.9608 -81.1917 28° Northeast 474 545 39,000  Level Jacksonville Center
10:06PM 33.0767 -81.1078 31° Northeast 474 545 39,000  Level Jacksonville Center
10:07PM 33.1964 -81.0258 30° Northeast 479 551 39,000  Level Jacksonville Center
10:08PM 33.3081 -80.9464 31° Northeast 479 551 39,000  Level Jacksonville Center
10:09PM 33.4256 -80.8644 30° Northeast 479 551 39,000  Level Jacksonville Center
10:10PM 33.5433 -80.7819 30° Northeast 479 551 39,000  Level Jacksonville Center
10:11PM 33.6567 -80.6992 31° Northeast 479 551 39,000  Level Jacksonville Center
10:12PM 33.7742 -80.6164 30° Northeast 479 551 39,000  Level Jacksonville Center
10:13PM 33.8853 -80.5358 31° Northeast 479 551 39,000  Level Jacksonville Center
10:14PM 34.0450 -80.4211 31° Northeast 456 525 39,000  Level Washington Center
10:15PM 34.1567 -80.3397 31° Northeast 461 531 39,000  Level Washington Center
10:16PM 34.2683 -80.2608 30° Northeast 458 527 39,000  Level Washington Center
10:17PM 34.3822 -80.1742 32° Northeast 468 539 39,000  Level Washington Center
10:18PM 34.4961 -80.0925 31° Northeast 468 539 39,000  Level Washington Center
10:19PM 34.5928 -80.0194 32° Northeast 461 531 39,000  Level Washington Center
10:20PM 34.7192 -79.9278 31° Northeast 466 536 39,000  Level Washington Center
10:21PM 34.8283 -79.8503 30° Northeast 461 531 39,000  Level Washington Center
10:22PM 34.9339 -79.7544 37° Northeast 461 531 39,000  Level Washington Center
10:23PM 35.0394 -79.6608 36° Northeast 461 531 39,000  Level Washington Center
10:24PM 35.1428 -79.5697 36° Northeast 466 536 39,000  Level Washington Center
10:25PM 35.2458 -79.4756 37° Northeast 466 536 39,000  Level Washington Center
10:26PM 35.3619 -79.3717 36° Northeast 466 536 39,000  Level Washington Center
10:27PM 35.4564 -79.2894 35° Northeast 466 536 39,000  Level Washington Center
10:28PM 35.5572 -79.1944 37° Northeast 466 536 39,000  Level Washington Center
10:29PM 35.6667 -79.0919 37° Northeast 466 536 39,000  Level Washington Center
10:30PM 35.7717 -78.9994 36° Northeast 466 536 39,000  Level Washington Center
10:31PM 35.8722 -78.9064 37° Northeast 466 536 39,000  Level Washington Center
10:32PM 35.9750 -78.8106 37° Northeast 466 536 39,000  Level Washington Center
10:33PM 36.0778 -78.7197 36° Northeast 461 531 39,000  Level Washington Center
10:34PM 36.1783 -78.6233 38° Northeast 461 531 39,000  Level Washington Center
10:35PM 36.2808 -78.5294 36° Northeast 456 525 39,000  Level Washington Center
10:36PM 36.3833 -78.4325 37° Northeast 456 525 39,000  Level Washington Center
10:37PM 36.4833 -78.3406 36° Northeast 451 519 39,000  Level Washington Center
10:38PM 36.5836 -78.2433 38° Northeast 451 519 39,000  Level Washington Center
10:39PM 36.6644 -78.1683 37° Northeast 451 519 39,000  Level Washington Center
10:40PM 36.7711 -78.0631 38° Northeast 451 519 39,000  Level Washington Center
10:41PM 36.8731 -77.9675 37° Northeast 451 519 39,000  Level Washington Center
10:42PM 36.9753 -77.8692 38° Northeast 456 525 39,000  Level Washington Center
10:43PM 37.0731 -77.7758 37° Northeast 456 525 39,000  Level Washington Center
10:44PM 37.1747 -77.6797 37° Northeast 451 519 39,000  Level Washington Center
10:45PM 37.2744 -77.5806 38° Northeast 451 519 39,000  Level Washington Center
10:46PM 37.3742 -77.4867 37° Northeast 451 519 39,000  Level Washington Center
10:47PM 37.4714 -77.3894 38° Northeast 451 519 39,000  Level Washington Center
10:48PM 37.5731 -77.2922 37° Northeast 451 519 39,000  Level Washington Center
10:49PM 37.6703 -77.1947 38° Northeast 451 519 39,000  Level Washington Center
10:50PM 37.7653 -77.1022 38° Northeast 445 512 39,000  Level Washington Center
10:51PM 37.8625 -77.0069 38° Northeast 440 506 39,000  Level Washington Center
10:52PM 37.9575 -76.9111 38° Northeast 440 506 39,000  Level Washington Center
10:53PM 38.0522 -76.8181 38° Northeast 440 506 39,000  Level Washington Center
10:54PM 38.1469 -76.7244 38° Northeast 435 501 39,000  Level Washington Center
10:55PM 38.2417 -76.6281 39° Northeast 435 501 39,000  Level Washington Center
10:56PM 38.3300 -76.5392 38° Northeast 428 493 39,000  Level Washington Center
10:57PM 38.4225 -76.4478 38° Northeast 422 486 39,000  Level Washington Center
10:58PM 38.5147 -76.3558 38° Northeast 422 486 39,000  Level Washington Center
10:59PM 38.6050 -76.2611 39° Northeast 422 486 39,000  Level Washington Center
11:00PM 38.7097 -76.1583 37° Northeast 429 494 39,000  Level Washington Center
11:01PM 38.8039 -76.0686 37° Northeast 429 494 39,000  Level Washington Center
11:02PM 38.8919 -75.9731 40° Northeast 424 488 39,000  Level Washington Center
11:03PM 38.9839 -75.8800 38° Northeast 419 482 39,000  Level Washington Center
11:04PM 39.0736 -75.7894 38° Northeast 419 482 39,000  Level Washington Center
11:05PM 39.1633 -75.6961 39° Northeast 419 482 39,000  Level Washington Center
11:06PM 39.2531 -75.6050 38° Northeast 413 475 39,000  Level Washington Center
11:07PM 39.3425 -75.5111 39° Northeast 413 475 39,000  Level Washington Center
11:08PM 39.4300 -75.4169 40° Northeast 413 475 39,000  Level Washington Center
11:10PM 39.5797 -75.2636 38° Northeast 431 496 39,000  Level New York Center
11:11PM 39.6689 -75.1697 39° Northeast 426 490 39,000  Level New York Center
11:12PM 39.7753 -75.1061 25° Northeast 408 470 39,000  Level New York Center
11:13PM 39.8833 -75.0586 19° North 408 470 39,000  Level New York Center
11:14PM 39.9975 -75.0169 16° North 408 470 39,000  Level New York Center
11:15PM 40.1056 -74.9692 19° North 408 470 39,000  Level New York Center
11:16PM 40.1989 -74.9258 20° North 408 470 39,000  Level New York Center
11:17PM 40.3086 -74.8808 17° North 403 464 39,000  Level New York Center
11:18PM 40.4769 -74.8081 18° North 403 464 39,000  Level Boston Center
11:19PM 40.5842 -74.7600 19° North 403 464 39,000  Level Boston Center
11:20PM 40.6936 -74.7147 17° North 408 470 39,000  Level Boston Center
11:21PM 40.8028 -74.6664 19° North 408 470 39,000  Level Boston Center
11:22PM 40.9122 -74.6208 17° North 408 470 39,000  Level Boston Center
11:23PM 41.0172 -74.5747 18° North 403 464 39,000  Level Boston Center
11:24PM 41.1369 -74.5236 18° North 408 470 39,000 -480 Level Boston Center
11:25PM 41.2442 -74.4747 19° North 408 470 38,100 -900 Descending Boston Center
11:26PM 41.3533 -74.4339 16° North 408 470 37,300 -960 Descending Boston Center
11:27PM 41.4519 -74.3844 21° North 395 455 36,200 -960 Descending Boston Center
11:28PM 41.5592 -74.3406 17° North 389 448 35,400 -1,020 Descending Boston Center
11:29PM 41.6661 -74.2936 18° North 394 453 34,200 -1,740 Descending Boston Center
11:30PM 41.7689 -74.2494 18° North 388 447 32,000 -2,100 Descending Boston Center
11:31PM 41.8550 -74.2100 19° North 369 425 30,000 -2,040 Descending Boston Center
11:32PM 41.9517 -74.1681 18° North 369 425 28,000 -1,380 Descending Boston Center
11:33PM 42.0236 -74.0861 40° Northeast 347 399 27,300 -900 Descending Boston Center
11:34PM 42.0753 -73.9700 59° Northeast 339 390 26,300 -1,020 Descending Boston Center
11:35PM 42.1247 -73.8536 60° Northeast 346 398 25,300 -1,020 Descending Boston Center
11:36PM 42.1761 -73.7400 59° Northeast 346 398 24,300 -660 Descending Boston Center
11:37PM 42.2339 -73.6039 60° Northeast 357 411 24,000 -180 Descending Boston Center
11:38PM 42.2831 -73.4925 59° Northeast 357 411 24,000 -480 Level Boston Center
11:39PM 42.3342 -73.3725 60° Northeast 357 411 23,100 -960 Descending Boston Center
11:40PM 42.3808 -73.2608 60° Northeast 340 391 22,100 -1,020 Descending Boston Center
11:41PM 42.4253 -73.1600 59° Northeast 335 386 21,100 -1,020 Descending Boston Center
11:42PM 42.4717 -73.0536 59° Northeast 327 376 20,100 -1,020 Descending Boston Center
11:43PM 42.5161 -72.9469 60° Northeast 327 376 19,100 -600 Descending Boston Center
11:44PM 42.5581 -72.8517 59° Northeast 321 369 19,000 -60 Descending Boston Center
11:45PM 42.6106 -72.7306 59° Northeast 331 381 19,000 -60 Level Boston Center
11:46PM 42.6567 -72.6208 60° Northeast 331 381 18,900 -540 Descending Boston Center
11:47PM 42.7025 -72.5136 60° Northeast 331 381 18,000 -1,560 Descending Boston Center
11:48PM 42.7464 -72.4061 61° Northeast 326 375 15,800 -2,160 Descending Boston Center
11:49PM 42.7900 -72.3014 60° Northeast 326 375 13,700 -1,980 Descending Boston Center
11:50PM 42.8022 -72.1856 82° East 308 354 11,900 -1,680 Descending Boston Center
11:51PM 42.7875 -72.0694 100° East 308 354 10,400 -1,140 Descending Boston Center
11:53PM 42.7744 -71.9592 99° East 280 322 9,400 -1,140 Descending Boston Center
11:54PM 42.7594 -71.8519 101° East 255 293 7,900 -1,440 Descending Boston Center
11:55PM 42.7506 -71.7672 98° East 255 293 6,600 -1,320 Descending Boston Center
11:56PM 42.7394 -71.6656 98° East 255 293 5,300 -1,260 Descending Boston Center
11:57PM 42.7328 -71.5836 96° East 248 285 4,100 -780 Descending Boston Center
11:58PM 42.7467 -71.4931 78° East 232 267 3,800 -540 Descending Boston Center
11:59PM 42.7750 -71.4133 64° Northeast 197 227 3,000 -780 Descending Boston Center
12:00AM 42.7997 -71.3647 55° Northeast 178 205 2,100 -600 Descending Boston Center
12:01AM 42.8478 -71.3839 344° North 136 157 1,800 -540 Descending Boston Center
12:02AM 42.8814 -71.4058 334° Northwest 152 175 1,100 11,100 Descending Boston Center
12:03AM 42.9169 -71.4281 335° Northwest 152 175 24,000 11,400 Climbing Boston Center
12:04AM 42.9589 -71.4586 332° Northwest 152 175 24,000  Level Boston Center